Time;durP1;ratioP1;P1;durP2;ratioP2;P2;SDS_P1;SDS_P2;PMS_P1;PMS_P2;Temp;Humidity;BMP_temperature;BMP_pressure;BME280_temperature;BME280_humidity;BME280_pressure;Samples;Min_cycle;Max_cycle;Signal;HPM_P1;HPM_P2
2023/07/29 00:01:24;;;;;;;2.72;2.10;;;20.50;65.90;;;;;;4975730;28;20032;-79
2023/07/29 00:03:49;;;;;;;2.55;2.20;;;20.50;65.80;;;;;;4992999;28;20073;-80
2023/07/29 00:06:15;;;;;;;3.63;2.70;;;20.50;65.80;;;;;;4975552;28;20057;-79
2023/07/29 00:08:41;;;;;;;3.83;2.97;;;20.50;65.80;;;;;;4992843;28;20485;-79
2023/07/29 00:11:07;;;;;;;4.68;3.67;;;20.50;65.80;;;;;;4978258;28;20034;-79
2023/07/29 00:13:32;;;;;;;5.55;3.70;;;20.50;65.70;;;;;;4979503;28;20031;-79
2023/07/29 00:15:58;;;;;;;6.65;4.03;;;20.50;65.60;;;;;;4979616;28;20053;-79
2023/07/29 00:18:24;;;;;;;6.80;4.47;;;20.50;65.70;;;;;;4997026;28;20422;-79
2023/07/29 00:20:50;;;;;;;5.78;3.95;;;20.50;65.70;;;;;;4979341;28;20034;-80
2023/07/29 00:23:18;;;;;;;5.10;4.18;;;20.50;65.60;;;;;;4979072;28;20414;-79
2023/07/29 00:25:44;;;;;;;6.07;4.05;;;20.50;65.80;;;;;;4979037;28;20042;-79
2023/07/29 00:28:11;;;;;;;5.53;3.83;;;20.50;65.70;;;;;;4979172;28;20422;-80
2023/07/29 00:30:36;;;;;;;8.60;3.97;;;20.40;65.80;;;;;;4979296;28;20026;-79
2023/07/29 00:33:02;;;;;;;6.78;3.50;;;20.40;65.80;;;;;;4979118;28;20390;-79
2023/07/29 00:35:28;;;;;;;5.50;3.78;;;20.40;66.00;;;;;;4978992;28;20030;-79
2023/07/29 00:37:53;;;;;;;5.65;3.25;;;20.40;66.00;;;;;;4979329;28;20037;-79
2023/07/29 00:40:20;;;;;;;5.55;3.30;;;20.40;66.10;;;;;;4979051;28;20113;-79
2023/07/29 00:42:46;;;;;;;4.22;2.90;;;20.40;66.00;;;;;;4979266;28;20088;-79
2023/07/29 00:45:12;;;;;;;5.13;3.17;;;20.30;66.00;;;;;;4996565;28;20066;-80
2023/07/29 00:47:39;;;;;;;4.00;2.65;;;20.30;66.00;;;;;;4978612;28;20022;-79
2023/07/29 00:50:09;;;;;;;3.95;2.75;;;20.30;66.00;;;;;;4978654;28;20022;-79
2023/07/29 00:52:34;;;;;;;4.53;3.00;;;20.30;66.60;;;;;;4996008;28;20418;-79
2023/07/29 00:55:00;;;;;;;3.63;2.50;;;20.30;65.80;;;;;;4996020;28;20023;-79
2023/07/29 00:57:28;;;;;;;4.20;2.60;;;20.30;65.60;;;;;;4978709;28;20030;-79
2023/07/29 00:59:54;;;;;;;4.45;2.63;;;20.30;65.50;;;;;;4978751;28;20022;-79
2023/07/29 01:02:19;;;;;;;6.43;2.92;;;20.30;65.50;;;;;;4978375;28;20109;-79
2023/07/29 01:04:45;;;;;;;3.08;2.60;;;20.30;65.40;;;;;;4996065;28;20462;-79
2023/07/29 01:07:11;;;;;;;4.82;2.90;;;20.40;65.40;;;;;;4978521;28;20486;-80
2023/07/29 01:09:53;;;;;;;3.30;2.78;;;20.40;65.40;;;;;;4978499;28;20386;-79
2023/07/29 01:12:29;;;;;;;2.60;2.40;;;20.40;65.10;;;;;;4978582;28;20077;-79
2023/07/29 01:15:22;;;;;;;3.03;2.70;;;20.40;65.10;;;;;;4978344;28;20054;-79
2023/07/29 01:17:59;;;;;;;4.60;2.70;;;20.40;65.10;;;;;;4996051;28;20033;-79
2023/07/29 01:20:25;;;;;;;3.53;2.85;;;20.40;65.10;;;;;;4978353;28;20076;-79
2023/07/29 01:22:51;;;;;;;4.40;3.05;;;20.50;65.20;;;;;;4977500;28;20406;-79
2023/07/29 01:25:17;;;;;;;3.75;2.95;;;20.40;65.10;;;;;;4978263;28;20096;-80
2023/07/29 01:27:45;;;;;;;4.38;2.80;;;20.50;65.10;;;;;;4978037;28;20073;-79
2023/07/29 01:30:11;;;;;;;3.75;2.88;;;20.50;65.10;;;;;;4995557;28;20060;-78
2023/07/29 01:32:51;;;;;;;4.25;3.00;;;20.40;65.20;;;;;;4995552;28;20069;-80
2023/07/29 01:35:54;;;;;;;4.20;2.97;;;20.40;65.20;;;;;;4995953;28;20426;-79
2023/07/29 01:38:34;;;;;;;3.53;2.90;;;20.40;65.30;;;;;;4995636;28;20019;-79
2023/07/29 01:41:02;;;;;;;4.90;3.33;;;20.40;65.50;;;;;;4978183;28;20058;-79
2023/07/29 01:43:31;;;;;;;4.07;2.97;;;20.40;65.50;;;;;;4977832;28;20482;-79
2023/07/29 01:45:57;;;;;;;3.65;2.80;;;20.40;65.40;;;;;;4977738;28;20058;-79
2023/07/29 01:48:23;;;;;;;4.45;3.08;;;20.40;65.50;;;;;;4995301;28;20030;-80
2023/07/29 01:50:48;;;;;;;4.50;3.00;;;20.40;65.40;;;;;;4995285;28;20064;-79
2023/07/29 01:53:14;;;;;;;3.22;2.78;;;20.40;65.40;;;;;;4977518;28;20030;-79
2023/07/29 01:55:40;;;;;;;4.03;3.03;;;20.40;65.40;;;;;;4995217;28;20030;-79
2023/07/29 01:58:06;;;;;;;3.38;3.00;;;20.40;65.50;;;;;;4977621;28;20026;-79
2023/07/29 02:00:31;;;;;;;3.72;2.67;;;20.40;65.50;;;;;;4977680;28;20106;-79
2023/07/29 02:02:57;;;;;;;4.32;2.83;;;20.40;65.60;;;;;;4977512;28;20076;-79
2023/07/29 02:05:23;;;;;;;4.20;2.90;;;20.30;65.60;;;;;;4977596;28;20121;-79
2023/07/29 02:07:48;;;;;;;4.07;3.08;;;20.30;65.80;;;;;;4977442;28;20081;-79
2023/07/29 02:10:15;;;;;;;5.18;3.15;;;20.30;65.80;;;;;;4977456;28;20031;-79
2023/07/29 02:12:40;;;;;;;4.18;2.95;;;20.30;65.90;;;;;;4977255;28;20041;-79
2023/07/29 02:15:06;;;;;;;4.57;3.20;;;20.30;66.00;;;;;;4977077;28;20026;-79
2023/07/29 02:17:32;;;;;;;4.15;3.13;;;20.30;66.00;;;;;;4993513;28;20045;-79
2023/07/29 02:19:58;;;;;;;4.40;2.90;;;20.20;66.10;;;;;;4977040;28;20026;-79
2023/07/29 02:22:23;;;;;;;3.38;2.70;;;20.20;66.10;;;;;;4976859;28;20044;-79
2023/07/29 02:24:49;;;;;;;3.80;2.85;;;20.20;66.20;;;;;;4977065;28;20058;-79
2023/07/29 02:27:15;;;;;;;4.53;3.03;;;20.20;66.30;;;;;;4994649;28;20398;-80
2023/07/29 02:29:40;;;;;;;4.60;2.75;;;20.20;66.40;;;;;;4994610;28;20026;-80
2023/07/29 02:32:06;;;;;;;3.30;2.60;;;20.20;66.30;;;;;;4994552;28;20424;-79
2023/07/29 02:34:31;;;;;;;4.68;3.40;;;20.20;66.40;;;;;;4975990;28;20106;-80
2023/07/29 02:36:57;;;;;;;4.45;3.08;;;20.20;66.50;;;;;;4976861;28;20069;-80
2023/07/29 02:39:23;;;;;;;3.80;3.10;;;20.20;66.50;;;;;;4977198;28;20509;-80
2023/07/29 02:41:49;;;;;;;3.47;2.80;;;20.20;66.70;;;;;;4976872;28;20482;-79
2023/07/29 02:44:15;;;;;;;3.58;2.55;;;20.20;66.60;;;;;;4976897;28;20056;-81
2023/07/29 02:46:41;;;;;;;4.75;3.03;;;20.20;66.50;;;;;;4995446;28;20033;-79
2023/07/29 02:49:06;;;;;;;4.03;2.78;;;20.20;66.60;;;;;;4978350;28;20390;-80
2023/07/29 02:51:32;;;;;;;2.90;2.55;;;20.20;66.50;;;;;;4977423;28;20532;-80
2023/07/29 02:53:58;;;;;;;4.60;2.85;;;20.30;66.50;;;;;;4977322;28;20100;-80
2023/07/29 02:56:24;;;;;;;3.88;2.38;;;20.30;66.50;;;;;;4978095;28;20030;-80
2023/07/29 02:58:52;;;;;;;3.50;2.70;;;20.30;66.60;;;;;;4976960;28;20041;-81
2023/07/29 03:01:18;;;;;;;3.53;2.60;;;20.30;66.60;;;;;;4977065;28;20026;-80
2023/07/29 03:03:44;;;;;;;3.75;2.90;;;20.30;66.60;;;;;;4994470;28;20134;-80
2023/07/29 03:06:13;;;;;;;4.47;2.72;;;20.30;66.60;;;;;;4994285;28;20030;-80
2023/07/29 03:08:39;;;;;;;3.35;3.00;;;20.40;66.60;;;;;;4993961;28;20030;-79
2023/07/29 03:11:11;;;;;;;4.10;2.65;;;20.40;67.40;;;;;;4976315;28;20076;-79
2023/07/29 03:13:37;;;;;;;3.25;2.72;;;20.40;66.70;;;;;;4993718;28;20065;-79
2023/07/29 03:16:10;;;;;;;4.10;3.13;;;20.30;66.70;;;;;;4993694;28;20062;-79
2023/07/29 03:18:36;;;;;;;4.22;3.13;;;20.40;66.90;;;;;;4976629;28;20486;-80
2023/07/29 03:21:02;;;;;;;4.32;2.58;;;20.30;67.00;;;;;;4976378;28;20033;-81
2023/07/29 03:23:29;;;;;;;3.97;2.80;;;20.30;67.10;;;;;;4976061;28;20046;-80
2023/07/29 03:25:57;;;;;;;3.55;3.00;;;20.40;67.20;;;;;;4975760;28;20105;-79
2023/07/29 03:28:25;;;;;;;3.85;2.85;;;20.40;67.50;;;;;;4976163;28;20117;-80
2023/07/29 03:30:51;;;;;;;3.92;2.90;;;20.40;67.50;;;;;;4976125;28;20022;-80
2023/07/29 03:33:16;;;;;;;3.20;2.78;;;20.50;67.40;;;;;;4975618;28;20483;-81
2023/07/29 03:35:44;;;;;;;3.38;2.60;;;20.50;67.60;;;;;;4975802;28;20026;-80
2023/07/29 03:38:13;;;;;;;3.75;2.67;;;20.50;67.60;;;;;;4993513;28;20033;-80
2023/07/29 03:40:40;;;;;;;2.90;2.60;;;20.60;67.70;;;;;;4993413;28;20113;-80
2023/07/29 03:43:06;;;;;;;3.35;2.67;;;20.60;67.70;;;;;;4993590;28;20026;-80
2023/07/29 03:45:32;;;;;;;3.67;2.80;;;20.70;67.70;;;;;;4975490;28;20022;-79
2023/07/29 03:47:57;;;;;;;4.47;3.08;;;20.70;67.70;;;;;;4975783;28;20518;-80
2023/07/29 03:50:24;;;;;;;2.90;2.45;;;20.70;67.40;;;;;;4976034;28;20022;-80
2023/07/29 03:52:50;;;;;;;2.88;2.60;;;20.80;67.70;;;;;;4993179;28;20246;-80
2023/07/29 03:55:16;;;;;;;2.92;2.63;;;20.90;67.70;;;;;;4975660;28;20062;-80
2023/07/29 03:57:41;;;;;;;2.67;2.47;;;21.00;67.60;;;;;;4975604;28;20096;-80
2023/07/29 04:00:08;;;;;;;3.22;2.67;;;21.20;68.10;;;;;;4975775;28;20034;-79
2023/07/29 04:02:37;;;;;;;4.10;2.80;;;21.30;67.20;;;;;;4993151;28;20027;-79
2023/07/29 04:05:03;;;;;;;3.47;2.58;;;21.30;67.20;;;;;;4975490;28;20038;-80
2023/07/29 04:07:30;;;;;;;3.67;2.65;;;21.40;67.10;;;;;;4992930;28;20066;-80
2023/07/29 04:09:56;;;;;;;2.80;2.50;;;21.30;67.00;;;;;;4993043;28;20493;-80
2023/07/29 04:12:22;;;;;;;3.92;2.63;;;21.40;67.10;;;;;;4992723;28;20045;-80
2023/07/29 04:14:48;;;;;;;4.18;3.20;;;21.40;67.10;;;;;;4975312;28;20026;-81
2023/07/29 04:17:14;;;;;;;4.65;2.67;;;21.30;67.10;;;;;;4975449;28;20433;-79
2023/07/29 04:19:39;;;;;;;2.97;2.72;;;21.40;67.30;;;;;;4975476;28;20030;-80
2023/07/29 04:22:05;;;;;;;3.17;2.80;;;21.30;67.40;;;;;;4975499;28;20027;-80
2023/07/29 04:24:31;;;;;;;3.40;2.80;;;21.40;67.40;;;;;;4975192;28;20022;-79
2023/07/29 04:26:57;;;;;;;3.35;2.92;;;21.30;67.60;;;;;;4975271;28;20034;-80
2023/07/29 04:29:22;;;;;;;4.13;2.88;;;21.40;67.70;;;;;;4975688;28;20030;-79
2023/07/29 04:31:51;;;;;;;3.58;2.75;;;21.30;67.70;;;;;;4975481;28;20085;-79
2023/07/29 04:34:18;;;;;;;3.65;2.95;;;21.40;67.80;;;;;;4991514;28;20299;-79
2023/07/29 04:36:45;;;;;;;5.00;3.30;;;21.30;67.90;;;;;;4975451;28;20038;-80
2023/07/29 04:39:10;;;;;;;4.15;3.15;;;21.30;67.80;;;;;;4992859;28;20034;-80
2023/07/29 04:41:36;;;;;;;4.65;3.08;;;21.30;68.20;;;;;;4975159;28;20379;-79
2023/07/29 04:44:02;;;;;;;3.45;2.78;;;21.30;68.20;;;;;;4992625;28;20034;-79
2023/07/29 04:46:27;;;;;;;3.97;3.00;;;21.30;68.50;;;;;;4992733;28;20078;-80
2023/07/29 04:48:53;;;;;;;3.63;3.03;;;21.30;68.70;;;;;;4975052;28;20474;-80
2023/07/29 04:51:19;;;;;;;4.18;2.65;;;21.30;68.80;;;;;;4975176;28;20037;-79
2023/07/29 04:53:44;;;;;;;3.83;3.10;;;21.30;68.80;;;;;;4975521;28;20165;-80
2023/07/29 04:56:10;;;;;;;3.90;3.17;;;21.30;69.00;;;;;;4975191;28;20030;-80
2023/07/29 04:58:36;;;;;;;4.63;3.05;;;21.40;69.20;;;;;;4995831;28;20030;-79
2023/07/29 05:01:03;;;;;;;3.28;2.97;;;21.40;69.30;;;;;;4978626;28;20030;-79
2023/07/29 05:03:28;;;;;;;4.15;3.28;;;21.50;69.40;;;;;;4978778;28;20033;-80
2023/07/29 05:05:55;;;;;;;3.90;3.38;;;21.70;69.60;;;;;;4996305;28;20027;-80
2023/07/29 05:08:21;;;;;;;3.85;3.33;;;21.70;69.60;;;;;;4978470;28;20394;-81
2023/07/29 05:10:54;;;;;;;3.03;2.72;;;21.90;69.40;;;;;;4978452;28;20022;-80
2023/07/29 05:13:20;;;;;;;3.50;3.20;;;22.10;69.20;;;;;;4996034;28;20080;-81
2023/07/29 05:15:48;;;;;;;3.55;2.95;;;22.20;69.00;;;;;;4994740;28;20367;-80
2023/07/29 05:18:14;;;;;;;4.05;3.08;;;22.30;68.90;;;;;;4978316;28;20026;-80
2023/07/29 05:20:40;;;;;;;4.78;3.33;;;22.50;68.90;;;;;;4978614;28;20113;-82
2023/07/29 05:23:05;;;;;;;3.95;3.20;;;22.70;68.80;;;;;;4978083;28;20126;-80
2023/07/29 05:25:31;;;;;;;5.28;3.35;;;22.90;68.60;;;;;;4978034;28;20055;-80
2023/07/29 05:27:57;;;;;;;3.22;2.80;;;23.10;68.10;;;;;;4978027;28;20112;-80
2023/07/29 05:30:23;;;;;;;3.15;2.80;;;23.20;67.60;;;;;;4977747;28;20029;-80
2023/07/29 05:32:48;;;;;;;3.33;2.92;;;23.30;67.10;;;;;;4977732;28;20503;-81
2023/07/29 05:35:14;;;;;;;3.25;2.95;;;23.40;66.80;;;;;;4977951;28;20125;-80
2023/07/29 05:37:40;;;;;;;3.22;2.88;;;23.30;66.70;;;;;;4978056;28;20057;-81
2023/07/29 05:40:07;;;;;;;3.30;2.83;;;23.30;66.60;;;;;;4977647;28;20038;-80
2023/07/29 05:42:33;;;;;;;4.68;2.88;;;23.20;66.60;;;;;;4995311;28;20035;-80
2023/07/29 05:44:59;;;;;;;2.95;2.60;;;23.10;66.90;;;;;;4978050;28;20076;-80
2023/07/29 05:47:25;;;;;;;3.42;2.67;;;23.10;67.10;;;;;;4977916;28;20030;-80
2023/07/29 05:49:50;;;;;;;5.28;3.15;;;23.00;67.20;;;;;;4977791;28;20248;-80
2023/07/29 05:52:16;;;;;;;3.38;2.80;;;22.90;67.20;;;;;;4977911;28;20026;-80
2023/07/29 05:54:42;;;;;;;4.82;3.10;;;22.90;67.40;;;;;;4977718;28;20034;-80
2023/07/29 05:57:09;;;;;;;3.97;3.00;;;22.90;67.40;;;;;;4995274;28;20501;-80
2023/07/29 05:59:35;;;;;;;5.05;3.40;;;22.90;67.50;;;;;;4977639;28;20403;-80
2023/07/29 06:02:01;;;;;;;3.53;2.80;;;22.80;67.60;;;;;;4995319;28;20022;-80
2023/07/29 06:04:26;;;;;;;3.67;3.15;;;22.80;67.70;;;;;;4977772;28;20409;-81
2023/07/29 06:06:52;;;;;;;3.33;2.90;;;22.80;67.70;;;;;;4977216;28;20038;-80
2023/07/29 06:09:18;;;;;;;5.30;3.33;;;22.80;67.70;;;;;;4977207;28;20030;-81
2023/07/29 06:11:44;;;;;;;3.95;3.25;;;22.80;67.60;;;;;;4977677;28;20026;-80
2023/07/29 06:14:09;;;;;;;3.50;2.80;;;22.80;67.90;;;;;;4995166;28;20022;-81
2023/07/29 06:16:35;;;;;;;3.17;2.85;;;22.90;68.30;;;;;;4976478;28;20026;-80
2023/07/29 06:19:01;;;;;;;2.92;2.60;;;22.90;68.30;;;;;;4975421;28;20124;-80
2023/07/29 06:21:26;;;;;;;4.07;3.05;;;23.00;67.90;;;;;;4974326;28;20057;-80
2023/07/29 06:23:52;;;;;;;3.22;2.92;;;23.00;67.90;;;;;;4976229;28;20064;-81
2023/07/29 06:26:18;;;;;;;5.00;3.08;;;23.10;68.00;;;;;;4993809;28;20077;-80
2023/07/29 06:28:44;;;;;;;4.05;2.80;;;23.10;68.20;;;;;;4994078;28;20022;-81
2023/07/29 06:31:09;;;;;;;2.88;2.63;;;23.20;68.30;;;;;;4976969;28;20026;-80
2023/07/29 06:33:35;;;;;;;3.10;2.80;;;23.30;68.30;;;;;;4976256;28;20109;-80
2023/07/29 06:36:01;;;;;;;3.00;2.70;;;23.50;68.30;;;;;;4975359;28;20444;-81
2023/07/29 06:38:27;;;;;;;3.58;2.83;;;23.50;68.10;;;;;;4992915;28;20109;-80
2023/07/29 06:40:52;;;;;;;3.05;2.75;;;23.60;68.00;;;;;;4992357;28;20034;-80
2023/07/29 06:43:18;;;;;;;4.32;2.60;;;23.80;67.90;;;;;;4975346;28;20031;-81
2023/07/29 06:45:44;;;;;;;4.22;3.03;;;23.90;67.90;;;;;;4975366;28;20066;-80
2023/07/29 06:48:09;;;;;;;3.13;2.67;;;24.00;67.70;;;;;;4976159;28;20027;-80
2023/07/29 06:50:35;;;;;;;3.10;2.80;;;24.10;67.60;;;;;;4976819;28;20027;-81
2023/07/29 06:53:00;;;;;;;2.55;2.35;;;24.30;67.40;;;;;;4993838;28;20030;-80
2023/07/29 06:55:26;;;;;;;3.15;2.80;;;24.40;67.20;;;;;;4994047;28;20461;-80
2023/07/29 06:57:52;;;;;;;3.65;2.78;;;24.50;66.70;;;;;;4976663;28;20042;-81
2023/07/29 07:00:17;;;;;;;2.95;2.58;;;24.60;66.50;;;;;;4993998;28;20099;-80
2023/07/29 07:02:43;;;;;;;3.20;2.90;;;24.70;66.40;;;;;;4993321;28;20034;-80
2023/07/29 07:05:09;;;;;;;2.88;2.33;;;24.80;66.00;;;;;;4975024;28;20173;-81
2023/07/29 07:07:35;;;;;;;3.00;2.70;;;24.90;65.70;;;;;;4975863;28;20022;-81
2023/07/29 07:10:00;;;;;;;3.88;2.80;;;24.90;65.40;;;;;;4993309;28;20026;-80
2023/07/29 07:12:26;;;;;;;3.38;3.03;;;24.90;65.50;;;;;;4975718;28;20386;-80
2023/07/29 07:14:52;;;;;;;3.20;2.90;;;25.00;66.00;;;;;;4976228;28;20037;-80
2023/07/29 07:17:18;;;;;;;3.03;2.63;;;24.90;64.90;;;;;;4976409;28;20470;-80
2023/07/29 07:19:43;;;;;;;2.70;2.50;;;24.90;64.80;;;;;;4993363;28;20402;-80
2023/07/29 07:22:09;;;;;;;3.28;2.97;;;24.80;65.10;;;;;;4976106;28;20030;-80
2023/07/29 07:24:35;;;;;;;2.97;2.67;;;24.70;65.20;;;;;;4993809;28;20599;-81
2023/07/29 07:27:00;;;;;;;2.80;2.60;;;24.70;65.50;;;;;;4976017;28;20042;-81
2023/07/29 07:29:26;;;;;;;2.85;2.53;;;24.80;65.50;;;;;;4975759;28;20019;-80
2023/07/29 07:31:54;;;;;;;2.75;2.55;;;24.80;65.80;;;;;;4975968;28;20062;-80
2023/07/29 07:34:22;;;;;;;3.53;2.90;;;24.90;65.80;;;;;;4993897;28;20014;-80
2023/07/29 07:36:49;;;;;;;3.50;2.67;;;24.90;65.20;;;;;;4992994;28;20026;-80
2023/07/29 07:39:15;;;;;;;3.03;2.72;;;24.90;65.80;;;;;;4993500;28;20110;-80
2023/07/29 07:41:41;;;;;;;2.65;2.45;;;25.00;65.00;;;;;;4976277;28;20058;-80
2023/07/29 07:44:07;;;;;;;2.78;2.58;;;25.00;65.00;;;;;;4975650;28;20026;-81
2023/07/29 07:46:33;;;;;;;3.00;2.67;;;25.00;64.90;;;;;;4975459;28;20085;-80
2023/07/29 07:48:58;;;;;;;2.92;2.63;;;25.00;65.00;;;;;;4975861;28;20042;-80
2023/07/29 07:51:24;;;;;;;2.60;2.40;;;25.00;65.60;;;;;;4975863;28;20519;-81
2023/07/29 07:53:50;;;;;;;3.28;2.90;;;25.00;65.30;;;;;;4975551;28;20023;-80
2023/07/29 07:56:16;;;;;;;2.72;2.53;;;25.00;65.40;;;;;;4975688;28;20030;-81
2023/07/29 07:58:41;;;;;;;2.90;2.70;;;25.00;65.40;;;;;;4975688;28;20034;-80
2023/07/29 08:01:08;;;;;;;3.22;2.70;;;25.00;65.80;;;;;;4975865;28;20022;-80
2023/07/29 08:03:35;;;;;;;2.90;2.70;;;25.00;66.10;;;;;;4975820;28;20027;-81
2023/07/29 08:06:02;;;;;;;3.22;2.83;;;24.90;66.30;;;;;;4993314;28;20030;-80
2023/07/29 08:08:28;;;;;;;2.80;2.60;;;24.90;66.80;;;;;;4992804;28;20018;-80
2023/07/29 08:10:54;;;;;;;3.05;2.75;;;24.90;66.90;;;;;;4974646;28;20034;-80
2023/07/29 08:13:24;;;;;;;2.60;2.40;;;24.90;66.90;;;;;;4974145;28;20449;-82
2023/07/29 08:15:51;;;;;;;3.00;2.70;;;24.80;66.90;;;;;;4974344;28;20033;-81
2023/07/29 08:18:17;;;;;;;3.38;2.60;;;24.80;67.00;;;;;;4991945;28;20117;-81
2023/07/29 08:20:53;;;;;;;2.90;2.70;;;24.80;66.60;;;;;;4974735;28;20483;-80
2023/07/29 08:23:19;;;;;;;2.53;2.33;;;24.80;66.60;;;;;;4974267;28;20105;-81
2023/07/29 08:25:44;;;;;;;2.83;2.50;;;24.80;67.00;;;;;;4973744;28;20482;-80
2023/07/29 08:28:11;;;;;;;3.35;2.50;;;24.80;67.00;;;;;;4973118;28;20104;-80
2023/07/29 08:30:36;;;;;;;2.75;2.47;;;24.80;66.60;;;;;;4974474;28;20026;-80
2023/07/29 08:33:02;;;;;;;2.88;2.47;;;24.80;66.30;;;;;;4977354;28;20033;-80
2023/07/29 08:35:28;;;;;;;3.00;2.70;;;24.80;66.00;;;;;;4977837;28;20403;-80
2023/07/29 08:37:54;;;;;;;3.10;2.60;;;24.70;66.00;;;;;;4977762;28;20058;-80
2023/07/29 08:40:27;;;;;;;2.65;2.45;;;24.70;66.40;;;;;;4996240;28;20026;-80
2023/07/29 08:42:55;;;;;;;2.85;2.55;;;24.70;66.80;;;;;;4979012;28;20033;-80
2023/07/29 08:45:21;;;;;;;2.60;2.40;;;24.70;66.90;;;;;;4978372;28;20030;-80
2023/07/29 08:47:49;;;;;;;3.03;2.67;;;24.70;66.90;;;;;;4996485;28;20023;-80
2023/07/29 08:50:15;;;;;;;2.58;2.38;;;24.70;67.10;;;;;;4996842;28;20450;-80
2023/07/29 08:52:42;;;;;;;2.90;2.50;;;24.70;67.50;;;;;;4996083;28;20042;-80
2023/07/29 08:55:08;;;;;;;2.47;2.28;;;24.70;67.80;;;;;;4977472;28;20026;-80
2023/07/29 08:57:35;;;;;;;2.65;2.22;;;24.60;67.70;;;;;;4977364;28;20077;-80
2023/07/29 09:00:02;;;;;;;2.50;2.30;;;24.60;67.50;;;;;;4977953;28;20022;-81
2023/07/29 09:02:28;;;;;;;2.60;2.40;;;24.50;67.20;;;;;;4977901;28;20502;-81
2023/07/29 09:04:53;;;;;;;2.97;2.45;;;24.50;67.10;;;;;;4978125;28;20031;-80
2023/07/29 09:07:20;;;;;;;2.50;2.30;;;24.50;67.20;;;;;;4977987;28;20049;-80
2023/07/29 09:09:46;;;;;;;3.03;2.72;;;24.50;66.90;;;;;;4978576;28;20092;-80
2023/07/29 09:12:11;;;;;;;2.35;2.15;;;24.50;66.80;;;;;;4978475;28;20030;-80
2023/07/29 09:14:37;;;;;;;2.67;2.47;;;24.50;66.50;;;;;;4978482;28;20065;-82
2023/07/29 09:17:06;;;;;;;2.42;2.22;;;24.50;67.50;;;;;;4976893;28;20483;-80
2023/07/29 09:19:33;;;;;;;2.90;2.65;;;24.60;66.80;;;;;;4961496;28;20093;-82
2023/07/29 09:21:59;;;;;;;2.35;2.17;;;24.60;66.50;;;;;;4958087;28;20088;-81
2023/07/29 09:24:25;;;;;;;2.53;2.33;;;24.60;66.40;;;;;;4957907;28;20051;-80
2023/07/29 09:26:53;;;;;;;2.70;2.50;;;24.70;66.30;;;;;;4958242;28;20480;-80
2023/07/29 09:29:23;;;;;;;3.83;2.63;;;24.80;66.20;;;;;;4958495;28;20038;-80
2023/07/29 09:31:49;;;;;;;2.97;1.97;;;24.80;65.80;;;;;;4959092;28;20035;-80
2023/07/29 09:34:17;;;;;;;2.72;2.50;;;24.80;65.50;;;;;;4958915;28;20495;-80
2023/07/29 09:36:43;;;;;;;2.95;2.60;;;24.80;65.50;;;;;;4976299;28;20023;-80
2023/07/29 09:39:12;;;;;;;2.50;2.30;;;24.90;65.40;;;;;;4958783;28;20130;-80
2023/07/29 09:41:38;;;;;;;2.88;2.65;;;24.90;65.60;;;;;;4958957;28;20030;-80
2023/07/29 09:44:05;;;;;;;2.40;2.20;;;24.90;65.70;;;;;;4958026;28;20027;-81
2023/07/29 09:46:36;;;;;;;2.80;2.55;;;24.80;65.80;;;;;;4975867;28;20030;-81
2023/07/29 09:49:07;;;;;;;2.50;2.30;;;24.80;65.90;;;;;;4958741;28;20407;-80
2023/07/29 09:51:39;;;;;;;2.60;2.40;;;24.80;65.90;;;;;;4976064;28;20019;-80
2023/07/29 09:54:05;;;;;;;2.85;2.55;;;24.80;65.80;;;;;;4976015;28;20062;-80
2023/07/29 09:56:30;;;;;;;2.60;2.40;;;24.80;66.20;;;;;;4957948;28;20081;-81
2023/07/29 09:58:59;;;;;;;2.33;2.15;;;24.70;66.50;;;;;;4958263;28;20089;-81
2023/07/29 10:01:25;;;;;;;2.33;2.13;;;24.80;66.90;;;;;;4958091;28;20406;-80
2023/07/29 10:03:52;;;;;;;3.78;2.42;;;24.80;67.30;;;;;;4958448;28;20031;-81
2023/07/29 10:06:18;;;;;;;2.53;2.33;;;24.80;67.60;;;;;;4958181;28;20447;-81
2023/07/29 10:08:45;;;;;;;2.63;2.42;;;24.80;67.50;;;;;;4958115;28;20066;-81
2023/07/29 10:11:11;;;;;;;2.60;2.40;;;24.80;67.90;;;;;;4958145;28;20018;-81
2023/07/29 10:13:38;;;;;;;3.90;2.40;;;24.70;68.50;;;;;;4957850;28;20027;-81
2023/07/29 10:16:05;;;;;;;2.65;2.40;;;24.80;68.10;;;;;;4957964;28;20023;-80
2023/07/29 10:18:32;;;;;;;2.60;2.40;;;24.80;68.20;;;;;;4957976;28;20030;-80
2023/07/29 10:20:59;;;;;;;2.58;2.38;;;24.80;68.30;;;;;;4957915;28;20038;-80
2023/07/29 10:23:26;;;;;;;2.58;2.30;;;24.80;68.60;;;;;;4957744;28;20051;-80
2023/07/29 10:26:02;;;;;;;2.47;2.28;;;24.80;68.70;;;;;;4975090;28;20038;-80
2023/07/29 10:28:30;;;;;;;2.30;2.10;;;24.80;68.70;;;;;;4957771;28;20026;-80
2023/07/29 10:30:57;;;;;;;2.40;2.20;;;24.80;68.70;;;;;;4957760;28;20093;-80
2023/07/29 10:33:22;;;;;;;2.38;2.17;;;24.70;68.80;;;;;;4957397;28;20023;-80
2023/07/29 10:35:49;;;;;;;2.42;2.20;;;24.70;68.70;;;;;;4975211;28;20045;-80
2023/07/29 10:38:15;;;;;;;2.50;2.30;;;24.60;68.70;;;;;;4974994;28;20058;-80
2023/07/29 10:40:51;;;;;;;2.30;2.10;;;24.60;68.60;;;;;;4974965;28;20028;-81
2023/07/29 10:43:27;;;;;;;2.30;2.20;;;24.60;68.90;;;;;;4957498;28;20027;-81
2023/07/29 10:45:55;;;;;;;3.13;1.98;;;24.60;69.20;;;;;;4957747;28;20109;-80
2023/07/29 10:48:42;;;;;;;2.33;2.13;;;24.50;69.40;;;;;;4957212;28;20027;-81
2023/07/29 10:51:30;;;;;;;2.70;2.50;;;24.50;69.60;;;;;;4973662;28;20407;-81
2023/07/29 10:54:04;;;;;;;1.90;1.80;;;24.50;69.70;;;;;;4956879;28;20037;-80
2023/07/29 10:56:35;;;;;;;2.33;2.10;;;24.50;69.80;;;;;;4956873;28;20049;-81
2023/07/29 10:59:16;;;;;;;3.28;2.38;;;24.50;69.40;;;;;;4957281;28;20089;-80
2023/07/29 11:01:49;;;;;;;2.35;2.15;;;24.50;68.90;;;;;;4956197;28;20081;-80
2023/07/29 11:04:24;;;;;;;2.58;2.38;;;24.50;68.60;;;;;;4957043;28;20037;-80
2023/07/29 11:07:06;;;;;;;2.08;1.98;;;24.50;68.20;;;;;;4957310;28;20023;-81
2023/07/29 11:09:47;;;;;;;2.00;1.90;;;24.50;69.40;;;;;;4974467;28;20471;-80
2023/07/29 11:12:32;;;;;;;;;;;24.60;69.80;;;;;;4957302;28;20031;-80
2023/07/29 11:15:01;;;;;;;2.50;2.30;;;24.50;70.30;;;;;;4956930;28;19910;-81
2023/07/29 11:17:27;;;;;;;2.30;2.20;;;24.50;69.60;;;;;;4974466;28;20027;-80
2023/07/29 11:19:55;;;;;;;2.15;2.03;;;24.60;69.80;;;;;;4974605;28;20049;-80
2023/07/29 11:22:21;;;;;;;1.83;1.73;;;24.60;70.10;;;;;;4973800;28;20027;-80
2023/07/29 11:24:46;;;;;;;2.20;2.10;;;24.60;70.00;;;;;;4955319;28;20427;-80
2023/07/29 11:27:12;;;;;;;2.30;2.10;;;24.60;70.10;;;;;;4955098;28;20475;-82
2023/07/29 11:29:37;;;;;;;2.15;2.05;;;24.60;70.50;;;;;;4955435;28;20037;-80
2023/07/29 11:32:03;;;;;;;2.53;2.33;;;24.60;70.40;;;;;;4954986;28;20086;-80
2023/07/29 11:34:32;;;;;;;2.60;2.40;;;24.50;70.90;;;;;;4954795;28;20081;-80
2023/07/29 11:36:58;;;;;;;2.60;2.40;;;24.50;71.00;;;;;;4956013;28;20074;-79
2023/07/29 11:39:23;;;;;;;2.38;2.20;;;24.50;71.20;;;;;;4955834;28;20431;-80
2023/07/29 11:41:49;;;;;;;2.60;2.40;;;24.50;71.50;;;;;;4972575;28;20038;-80
2023/07/29 11:44:18;;;;;;;2.28;2.08;;;24.50;71.50;;;;;;4972848;28;20499;-80
2023/07/29 11:46:44;;;;;;;2.60;2.40;;;24.50;71.50;;;;;;4955494;28;20125;-81
2023/07/29 11:49:10;;;;;;;2.63;2.40;;;24.50;71.30;;;;;;4955683;28;20113;-80
2023/07/29 11:51:36;;;;;;;2.40;2.20;;;24.50;71.30;;;;;;4955586;28;20019;-80
2023/07/29 11:54:03;;;;;;;2.22;2.10;;;24.50;71.60;;;;;;4955888;28;20031;-80
2023/07/29 11:56:30;;;;;;;2.17;2.00;;;24.50;71.90;;;;;;4956558;28;20027;-80
2023/07/29 11:58:56;;;;;;;2.55;2.35;;;24.50;71.80;;;;;;4956467;28;20050;-80
2023/07/29 12:01:22;;;;;;;2.20;2.00;;;24.50;72.00;;;;;;4956150;28;20057;-80
2023/07/29 12:03:49;;;;;;;2.50;2.30;;;24.50;72.00;;;;;;4973635;28;20023;-80
2023/07/29 12:06:16;;;;;;;2.40;2.20;;;24.50;72.10;;;;;;4955643;28;20447;-81
2023/07/29 12:08:43;;;;;;;2.72;2.53;;;24.50;72.10;;;;;;4956297;28;20029;-80
2023/07/29 12:11:09;;;;;;;2.33;2.13;;;24.60;72.10;;;;;;4973709;28;20062;-81
2023/07/29 12:13:36;;;;;;;2.50;2.30;;;24.60;71.90;;;;;;4954637;28;20023;-80
2023/07/29 12:16:06;;;;;;;2.90;2.17;;;24.60;71.70;;;;;;4954695;28;20042;-80
2023/07/29 12:18:32;;;;;;;3.10;2.45;;;24.60;71.50;;;;;;4954834;28;20372;-80
2023/07/29 12:20:59;;;;;;;2.55;2.05;;;24.60;71.50;;;;;;4972570;28;20027;-80
2023/07/29 12:23:28;;;;;;;2.08;1.88;;;24.60;71.60;;;;;;4955520;28;20043;-81
2023/07/29 12:26:00;;;;;;;2.50;2.30;;;24.70;71.40;;;;;;4972868;28;20050;-81
2023/07/29 12:28:26;;;;;;;2.40;2.20;;;24.70;71.20;;;;;;4973353;28;20487;-80
2023/07/29 12:30:56;;;;;;;2.55;2.35;;;24.70;71.20;;;;;;4955736;28;20548;-80
2023/07/29 12:33:36;;;;;;;2.70;2.50;;;24.70;71.10;;;;;;4955574;28;20026;-80
2023/07/29 12:36:02;;;;;;;2.55;2.30;;;24.70;71.00;;;;;;4955561;28;20093;-80
2023/07/29 12:38:28;;;;;;;2.38;2.28;;;24.70;71.00;;;;;;4953850;28;20039;-82
2023/07/29 12:40:54;;;;;;;2.50;2.30;;;24.70;71.00;;;;;;4954151;28;20027;-81
2023/07/29 12:43:20;;;;;;;2.38;2.15;;;24.70;71.20;;;;;;4972439;28;20537;-80
2023/07/29 12:45:45;;;;;;;3.35;2.05;;;24.70;71.50;;;;;;4955155;28;20037;-81
2023/07/29 12:48:11;;;;;;;2.25;2.05;;;24.80;71.60;;;;;;4972773;28;20102;-80